createdAt,value
2019-03-09T00:00:55.809Z,67.37
2019-03-09T00:05:01.177Z,68.22
2019-03-09T00:09:08.728Z,67.08
2019-03-09T00:13:14.384Z,65.88
2019-03-09T00:17:19.828Z,65.77
2019-03-09T00:21:25.211Z,67.02
2019-03-09T00:25:35.128Z,67.95
2019-03-09T00:29:59.442Z,70.27
2019-03-09T00:34:04.893Z,71.00
2019-03-09T00:38:10.309Z,72.69
2019-03-09T00:42:15.737Z,74.12
2019-03-09T00:46:21.151Z,76.20
2019-03-09T00:50:26.854Z,77.70
2019-03-09T00:54:32.295Z,78.63
2019-03-09T00:58:37.748Z,78.74
2019-03-09T01:02:43.477Z,79.76
2019-03-09T01:06:48.881Z,79.53
2019-03-09T01:10:54.583Z,80.39
2019-03-09T01:15:00.158Z,80.57
2019-03-09T01:19:05.787Z,81.69
2019-03-09T01:23:11.377Z,80.96
2019-03-09T01:27:16.807Z,80.93
2019-03-09T01:31:22.288Z,81.88
2019-03-09T01:35:27.710Z,81.12
2019-03-09T01:39:33.052Z,82.08
2019-03-09T01:43:38.521Z,83.07
2019-03-09T01:47:43.994Z,83.70
2019-03-09T01:51:49.456Z,83.78
2019-03-09T01:55:54.898Z,83.90
2019-03-09T02:00:00.316Z,84.30
2019-03-09T02:04:05.894Z,84.21
2019-03-09T02:08:11.348Z,84.22
2019-03-09T02:12:17.113Z,83.41
2019-03-09T02:16:22.625Z,84.18
2019-03-09T02:20:28.045Z,84.49
2019-03-09T02:24:33.371Z,84.37
2019-03-09T02:28:38.826Z,84.81
2019-03-09T02:32:44.445Z,85.22
2019-03-09T02:36:49.871Z,85.07
2019-03-09T02:40:55.258Z,85.44
2019-03-09T02:45:00.742Z,85.89
2019-03-09T02:49:06.156Z,85.62
2019-03-09T02:53:20.226Z,86.21
2019-03-09T02:57:25.722Z,85.94
2019-03-09T03:01:40.028Z,85.84
2019-03-09T03:05:45.448Z,85.93
2019-03-09T03:09:50.904Z,85.94
2019-03-09T03:13:56.527Z,85.97
2019-03-09T03:18:03.547Z,86.36
2019-03-09T03:22:09.216Z,86.01
2019-03-09T03:26:14.620Z,86.16
2019-03-09T03:30:20.107Z,86.72
2019-03-09T03:34:28.329Z,86.50
2019-03-09T03:38:33.748Z,86.68
2019-03-09T03:42:39.332Z,86.80
2019-03-09T03:46:44.708Z,86.96
2019-03-09T03:50:50.126Z,86.02
2019-03-09T03:54:55.490Z,86.19
2019-03-09T03:59:01.205Z,86.62
2019-03-09T04:03:06.751Z,86.61
2019-03-09T04:07:12.726Z,86.51
2019-03-09T04:11:18.605Z,86.62
2019-03-09T04:15:24.109Z,87.06
2019-03-09T04:19:29.407Z,87.43
2019-03-09T04:23:34.813Z,87.54
2019-03-09T04:27:40.224Z,87.78
2019-03-09T04:31:52.301Z,87.45
2019-03-09T04:35:53.115Z,87.31
2019-03-09T04:39:58.784Z,87.06
2019-03-09T04:44:04.370Z,87.05
2019-03-09T04:48:09.813Z,87.19
2019-03-09T04:52:15.318Z,87.30
2019-03-09T04:56:20.579Z,86.98
2019-03-09T05:00:26.019Z,86.70
2019-03-09T05:04:54.324Z,86.66
2019-03-09T05:09:28.488Z,86.42
2019-03-09T05:13:46.311Z,86.36
2019-03-09T05:17:51.676Z,86.08
2019-03-09T05:21:57.094Z,86.36
2019-03-09T05:26:02.435Z,85.84
2019-03-09T05:30:09.812Z,86.00
2019-03-09T05:34:15.503Z,85.55
2019-03-09T05:38:20.944Z,85.57
2019-03-09T05:42:26.247Z,85.43
2019-03-09T05:46:31.686Z,85.73
2019-03-09T05:50:36.997Z,85.33
2019-03-09T05:54:42.441Z,85.12
2019-03-09T05:58:47.756Z,85.19
2019-03-09T06:02:53.235Z,85.12
2019-03-09T06:06:58.589Z,85.51
2019-03-09T06:11:04.069Z,85.59
2019-03-09T06:15:09.849Z,85.47
2019-03-09T06:19:15.487Z,85.40
2019-03-09T06:23:21.365Z,84.81
2019-03-09T06:27:26.745Z,84.68
2019-03-09T06:31:32.033Z,84.94
2019-03-09T06:35:37.398Z,84.68
2019-03-09T06:39:49.606Z,84.53
2019-03-09T06:43:54.996Z,84.70
2019-03-09T06:48:00.454Z,84.50
2019-03-09T06:52:05.924Z,84.58
2019-03-09T06:56:14.825Z,84.34
2019-03-09T07:00:41.103Z,84.28
2019-03-09T07:04:50.263Z,84.41
2019-03-09T07:08:59.540Z,84.22
2019-03-09T07:13:05.020Z,84.06
2019-03-09T07:17:10.485Z,83.94
2019-03-09T07:21:15.946Z,84.04
2019-03-09T07:25:21.444Z,83.64
2019-03-09T07:29:26.817Z,83.55
2019-03-09T07:33:32.390Z,83.26
2019-03-09T07:37:37.884Z,82.77
2019-03-09T07:41:43.459Z,82.67
2019-03-09T07:45:49.180Z,81.95
2019-03-09T07:49:54.710Z,81.93
2019-03-09T07:54:00.045Z,81.58
2019-03-09T07:58:07.997Z,80.85
2019-03-09T08:02:13.445Z,81.19
2019-03-09T08:06:19.410Z,81.19
2019-03-09T08:10:24.955Z,80.86
2019-03-09T08:14:30.433Z,80.76
2019-03-09T08:18:35.792Z,81.05
2019-03-09T08:22:41.220Z,81.33
2019-03-09T08:26:46.684Z,81.51
2019-03-09T08:30:52.052Z,80.46
2019-03-09T08:34:57.821Z,80.72
2019-03-09T08:39:04.164Z,79.65
2019-03-09T08:43:11.294Z,79.39
2019-03-09T08:47:17.030Z,79.37
2019-03-09T08:51:22.752Z,79.30
2019-03-09T08:55:28.525Z,78.74
2019-03-09T08:59:33.983Z,78.08
2019-03-09T09:03:39.366Z,78.02
2019-03-09T09:07:44.835Z,78.04
2019-03-09T09:11:50.598Z,77.10
2019-03-09T09:15:56.066Z,76.07
2019-03-09T09:20:01.966Z,76.48
2019-03-09T09:24:07.459Z,75.83
2019-03-09T09:28:12.815Z,75.27
2019-03-09T09:32:18.279Z,75.22
2019-03-09T09:36:23.754Z,74.67
2019-03-09T09:40:29.377Z,74.92
2019-03-09T09:44:34.829Z,74.28
2019-03-09T09:48:40.338Z,74.21
2019-03-09T09:52:46.445Z,74.66
2019-03-09T09:56:51.851Z,74.14
2019-03-09T10:00:57.290Z,73.22
2019-03-09T10:05:03.349Z,73.48
2019-03-09T10:09:09.852Z,73.50
2019-03-09T10:13:15.384Z,72.84
2019-03-09T10:17:20.969Z,72.21
2019-03-09T10:21:26.405Z,71.91
2019-03-09T10:25:32.094Z,71.85
2019-03-09T10:29:37.581Z,72.14
2019-03-09T10:33:44.677Z,71.81
2019-03-09T10:37:50.348Z,71.45
2019-03-09T10:41:55.892Z,70.52
2019-03-09T10:46:01.326Z,70.14
2019-03-09T10:50:09.255Z,68.46
2019-03-09T10:54:14.568Z,67.79
2019-03-09T10:58:19.988Z,68.63
2019-03-09T11:02:25.709Z,68.59
2019-03-09T11:06:31.158Z,68.77
2019-03-09T11:10:36.829Z,67.78
2019-03-09T11:14:42.318Z,66.86
2019-03-09T11:18:47.601Z,66.58
2019-03-09T11:22:53.115Z,66.59
2019-03-09T11:26:58.499Z,65.98
2019-03-09T11:31:04.189Z,65.85
2019-03-09T11:35:09.629Z,65.15
2019-03-09T11:39:15.406Z,64.86
2019-03-09T11:43:21.252Z,64.44
2019-03-09T11:47:26.998Z,64.05
2019-03-09T11:51:32.542Z,63.60
2019-03-09T11:55:38.104Z,62.48
2019-03-09T11:59:44.199Z,61.61
2019-03-09T12:03:49.663Z,61.18
2019-03-09T12:07:55.161Z,60.75
2019-03-09T12:12:04.749Z,58.26
2019-03-09T12:16:10.709Z,58.83
2019-03-09T12:20:18.224Z,57.79
2019-03-09T12:24:23.699Z,58.25
2019-03-09T12:28:29.160Z,57.72
2019-03-09T12:32:34.585Z,57.72
2019-03-09T12:36:39.978Z,56.83
2019-03-09T12:40:47.506Z,57.31
2019-03-09T12:44:53.045Z,57.30
2019-03-09T12:48:58.974Z,57.97
2019-03-09T12:53:04.408Z,59.08
2019-03-09T12:57:13.375Z,58.56
2019-03-09T13:01:21.966Z,58.72
2019-03-09T13:05:26.815Z,56.79
2019-03-09T13:09:32.335Z,57.50
2019-03-09T13:13:37.880Z,58.00
2019-03-09T13:17:44.038Z,57.75
2019-03-09T13:21:49.607Z,57.62
2019-03-09T13:25:55.134Z,57.87
2019-03-09T13:30:00.527Z,60.11
2019-03-09T13:34:06.172Z,60.42
2019-03-09T13:38:11.732Z,68.95
2019-03-09T13:42:17.310Z,73.81
2019-03-09T13:46:25.969Z,75.57
2019-03-09T13:50:31.607Z,77.29
2019-03-09T13:54:37.098Z,75.81
2019-03-09T13:58:43.050Z,74.11
2019-03-09T14:02:48.854Z,70.82
2019-03-09T14:06:54.681Z,70.08
2019-03-09T14:11:01.077Z,68.20
2019-03-09T14:15:07.257Z,70.93
2019-03-09T14:19:12.781Z,69.87
2019-03-09T14:23:18.139Z,68.81
2019-03-09T14:27:23.620Z,70.01
2019-03-09T14:31:29.069Z,71.83
2019-03-09T14:35:34.969Z,71.57
2019-03-09T14:39:40.521Z,69.53
2019-03-09T14:43:46.056Z,67.86
2019-03-09T14:47:51.578Z,65.79
2019-03-09T14:51:57.921Z,65.46
2019-03-09T14:56:03.379Z,66.57
2019-03-09T15:00:16.054Z,66.25
2019-03-09T15:04:21.477Z,66.41
2019-03-09T15:08:26.925Z,67.50
2019-03-09T15:12:32.348Z,70.57
2019-03-09T15:16:38.126Z,71.54
2019-03-09T15:20:43.678Z,73.15
2019-03-09T15:24:49.208Z,71.76
2019-03-09T15:28:55.153Z,72.03
2019-03-09T15:33:00.890Z,70.20
2019-03-09T15:37:06.353Z,65.24
2019-03-09T15:41:11.802Z,64.43
2019-03-09T15:45:17.282Z,74.42
2019-03-09T15:49:22.849Z,74.39
2019-03-09T15:53:29.124Z,75.99
2019-03-09T15:57:34.626Z,72.46
2019-03-09T16:01:40.405Z,73.18
2019-03-09T16:05:45.885Z,70.34
2019-03-09T16:09:51.760Z,72.77
2019-03-09T16:13:58.010Z,67.76
2019-03-09T16:18:03.503Z,67.19
2019-03-09T16:22:09.173Z,76.16
2019-03-09T16:26:14.699Z,78.37
2019-03-09T16:30:20.624Z,78.97
2019-03-09T16:34:25.987Z,77.98
2019-03-09T16:38:31.439Z,77.26
2019-03-09T16:42:36.860Z,77.70
2019-03-09T16:46:42.383Z,76.64
2019-03-09T16:50:48.264Z,74.73
2019-03-09T16:54:54.001Z,75.10
2019-03-09T16:58:59.959Z,73.17
2019-03-09T17:03:05.877Z,72.64
2019-03-09T17:07:11.297Z,72.04
2019-03-09T17:11:16.821Z,72.02
2019-03-09T17:15:22.366Z,72.05
2019-03-09T17:19:27.768Z,71.02
2019-03-09T17:23:33.180Z,69.64
2019-03-09T17:27:38.907Z,68.53
2019-03-09T17:31:44.443Z,68.97
2019-03-09T17:35:49.896Z,69.85
2019-03-09T17:39:55.431Z,67.35
2019-03-09T17:44:01.184Z,68.29
2019-03-09T17:48:06.716Z,67.31
2019-03-09T17:52:12.244Z,67.71
2019-03-09T17:56:17.623Z,68.07
2019-03-09T18:00:24.480Z,68.42
2019-03-09T18:04:30.235Z,68.35
2019-03-09T18:08:35.748Z,67.22
2019-03-09T18:12:41.342Z,67.60
2019-03-09T18:16:52.808Z,67.35
2019-03-09T18:20:53.992Z,67.35
2019-03-09T18:24:59.277Z,68.42
2019-03-09T18:29:05.289Z,66.96
2019-03-09T18:33:10.945Z,67.05
2019-03-09T18:37:16.480Z,67.26
2019-03-09T18:41:21.853Z,67.58
2019-03-09T18:45:27.387Z,66.86
2019-03-09T18:49:32.956Z,65.82
2019-03-09T18:53:38.466Z,66.65
2019-03-09T18:57:43.996Z,67.94
2019-03-09T19:01:49.507Z,67.54
2019-03-09T19:05:55.189Z,68.23
2019-03-09T19:10:03.915Z,68.70
2019-03-09T19:14:09.437Z,67.96
2019-03-09T19:18:14.914Z,68.18
2019-03-09T19:22:20.647Z,68.49
2019-03-09T19:26:26.130Z,68.96
2019-03-09T19:30:31.620Z,68.49
2019-03-09T19:34:37.273Z,68.19
2019-03-09T19:38:42.627Z,68.57
2019-03-09T19:42:48.105Z,68.79
2019-03-09T19:46:53.549Z,69.62
2019-03-09T19:50:59.218Z,69.60
2019-03-09T19:55:04.840Z,69.28
2019-03-09T19:59:10.103Z,69.92
2019-03-09T20:03:15.639Z,69.01
2019-03-09T20:07:21.339Z,68.78
2019-03-09T20:11:27.435Z,69.10
2019-03-09T20:15:33.072Z,68.03
2019-03-09T20:19:38.540Z,66.72
2019-03-09T20:23:44.039Z,66.83
2019-03-09T20:27:49.675Z,68.21
2019-03-09T20:31:55.097Z,67.98
2019-03-09T20:36:00.465Z,69.08
2019-03-09T20:40:06.404Z,68.04
2019-03-09T20:44:12.238Z,67.60
2019-03-09T20:48:17.669Z,66.80
2019-03-09T20:52:23.167Z,62.40
2019-03-09T20:56:28.792Z,61.93
2019-03-09T21:00:34.366Z,61.56
2019-03-09T21:04:40.085Z,61.57
2019-03-09T21:08:45.620Z,60.86
2019-03-09T21:12:59.760Z,61.33
2019-03-09T21:17:05.531Z,59.64
2019-03-09T21:21:10.989Z,59.27
2019-03-09T21:25:16.820Z,61.18
2019-03-09T21:29:22.530Z,59.00
2019-03-09T21:33:28.139Z,59.14
2019-03-09T21:37:34.294Z,59.33
2019-03-09T21:41:41.629Z,58.69
2019-03-09T21:45:47.334Z,59.69
2019-03-09T21:49:52.758Z,60.75
2019-03-09T21:53:58.861Z,59.76
2019-03-09T21:58:04.247Z,60.11
2019-03-09T22:02:09.839Z,60.63
2019-03-09T22:06:15.288Z,61.13
2019-03-09T22:10:20.816Z,59.91
2019-03-09T22:14:26.297Z,60.93
2019-03-09T22:18:31.710Z,60.96
2019-03-09T22:22:37.187Z,60.19
2019-03-09T22:26:42.629Z,59.73
2019-03-09T22:30:48.372Z,59.70
2019-03-09T22:34:53.792Z,58.98
2019-03-09T22:38:59.603Z,58.76
2019-03-09T22:43:05.043Z,60.04
2019-03-09T22:47:12.044Z,61.15
2019-03-09T22:51:17.838Z,61.04
2019-03-09T22:55:23.286Z,61.12
2019-03-09T22:59:28.727Z,60.94
2019-03-09T23:03:34.452Z,60.43
2019-03-09T23:07:39.885Z,61.52
2019-03-09T23:11:45.292Z,62.81
2019-03-09T23:15:51.842Z,62.63
2019-03-09T23:19:57.456Z,63.46
2019-03-09T23:24:03.118Z,64.56
2019-03-09T23:28:08.525Z,66.70
2019-03-09T23:32:13.961Z,66.73
2019-03-09T23:36:19.412Z,66.86
2019-03-09T23:40:25.118Z,67.65
2019-03-09T23:44:30.712Z,68.53
2019-03-09T23:48:36.140Z,68.18
2019-03-09T23:52:41.807Z,69.44
2019-03-09T23:56:47.419Z,69.85
